createdAt,value
2023-10-23T00:00:17.236Z,99.95
2023-10-23T00:05:41.403Z,100.00
2023-10-23T00:10:46.250Z,100.00
2023-10-23T00:15:50.475Z,100.00
2023-10-23T00:20:57.054Z,100.00
2023-10-23T00:26:01.044Z,99.97
2023-10-23T00:31:05.264Z,99.96
2023-10-23T00:36:11.635Z,99.85
2023-10-23T00:41:15.439Z,99.94
2023-10-23T00:46:23.863Z,99.97
2023-10-23T00:51:29.595Z,100.00
2023-10-23T00:56:35.587Z,100.00
2023-10-23T01:01:39.946Z,100.00
2023-10-23T01:06:45.596Z,100.00
2023-10-23T01:11:51.698Z,100.00
2023-10-23T01:16:56.165Z,100.00
2023-10-23T01:21:59.924Z,100.00
2023-10-23T01:27:04.093Z,100.00
2023-10-23T01:32:12.042Z,100.00
2023-10-23T01:37:15.955Z,100.00
2023-10-23T01:42:19.947Z,100.00
2023-10-23T01:47:24.770Z,100.00
2023-10-23T01:58:01.456Z,100.00
2023-10-23T02:03:09.283Z,100.00
2023-10-23T02:08:18.169Z,100.00
2023-10-23T02:13:25.688Z,100.00
2023-10-23T02:18:33.272Z,100.00
2023-10-23T02:23:53.189Z,100.00
2023-10-23T02:29:03.627Z,100.00
2023-10-23T02:34:10.968Z,100.00
2023-10-23T02:39:18.795Z,100.00
2023-10-23T02:44:26.291Z,100.00
2023-10-23T02:49:33.876Z,100.00
2023-10-23T02:54:42.478Z,100.00
2023-10-23T02:59:50.780Z,100.00
2023-10-23T03:04:59.564Z,100.00
2023-10-23T03:10:08.409Z,100.00
2023-10-23T03:15:17.935Z,100.00
2023-10-23T03:20:25.323Z,100.00
2023-10-23T03:25:35.571Z,100.00
2023-10-23T03:30:43.277Z,100.00
2023-10-23T03:35:50.700Z,100.00
2023-10-23T03:41:00.953Z,100.00
2023-10-23T03:46:08.639Z,100.00
2023-10-23T03:51:18.178Z,100.00
2023-10-23T03:56:25.632Z,100.00
2023-10-23T04:01:33.365Z,100.00
2023-10-23T04:06:42.243Z,100.00
2023-10-23T04:11:50.179Z,100.00
2023-10-23T04:16:57.461Z,100.00
2023-10-23T04:22:05.438Z,100.00
2023-10-23T04:27:12.973Z,100.00
2023-10-23T04:32:20.244Z,100.00
2023-10-23T04:37:27.865Z,100.00
2023-10-23T04:42:35.206Z,100.00
2023-10-23T04:47:43.285Z,100.00
2023-10-23T04:52:50.633Z,100.00
2023-10-23T04:57:58.300Z,100.00
2023-10-23T05:03:06.478Z,100.00
2023-10-23T05:08:13.954Z,100.00
2023-10-23T05:13:21.186Z,100.00
2023-10-23T05:18:29.077Z,100.00
2023-10-23T05:23:36.854Z,100.00
2023-10-23T05:28:45.069Z,100.00
2023-10-23T05:33:53.543Z,100.00
2023-10-23T05:39:01.007Z,100.00
2023-10-23T05:44:08.999Z,100.00
2023-10-23T05:49:16.457Z,100.00
2023-10-23T05:54:24.014Z,100.00
2023-10-23T05:59:31.922Z,100.00
2023-10-23T06:04:39.209Z,100.00
2023-10-23T06:09:47.068Z,100.00
2023-10-23T06:14:55.511Z,100.00
2023-10-23T06:20:03.005Z,100.00
2023-10-23T06:25:11.452Z,100.00
2023-10-23T06:30:19.337Z,100.00
2023-10-23T06:35:27.245Z,100.00
2023-10-23T06:40:34.904Z,100.00
2023-10-23T06:46:00.481Z,100.00
2023-10-23T06:51:08.936Z,100.00
2023-10-23T06:56:16.538Z,100.00
2023-10-23T07:01:37.982Z,100.00
2023-10-23T07:06:51.530Z,100.00
2023-10-23T07:11:58.800Z,100.00
2023-10-23T07:17:06.990Z,100.00
2023-10-23T07:22:14.350Z,100.00
2023-10-23T07:27:22.095Z,100.00
2023-10-23T07:32:32.159Z,100.00
2023-10-23T07:37:40.101Z,100.00
2023-10-23T07:42:47.668Z,100.00
2023-10-23T07:47:55.432Z,100.00
2023-10-23T07:53:02.908Z,100.00
2023-10-23T07:58:10.382Z,100.00
2023-10-23T08:03:18.306Z,100.00
2023-10-23T08:08:26.086Z,100.00
2023-10-23T08:13:35.166Z,100.00
2023-10-23T08:18:43.201Z,100.00
2023-10-23T08:23:54.493Z,99.88
2023-10-23T08:29:03.558Z,98.72
2023-10-23T08:34:11.840Z,97.84
2023-10-23T08:39:21.249Z,97.50
2023-10-23T08:44:28.797Z,95.37
2023-10-23T08:49:36.304Z,94.90
2023-10-23T08:54:46.964Z,94.86
2023-10-23T08:59:55.603Z,93.61
2023-10-23T09:05:02.964Z,93.61
2023-10-23T09:10:12.123Z,92.39
2023-10-23T09:15:22.353Z,91.74
2023-10-23T09:20:32.400Z,91.15
2023-10-23T09:25:41.675Z,91.24
2023-10-23T09:30:51.028Z,90.73
2023-10-23T09:35:58.816Z,89.51
2023-10-23T09:41:09.900Z,88.99
2023-10-23T09:46:18.121Z,89.08
2023-10-23T09:51:30.810Z,88.59
2023-10-23T09:56:41.186Z,87.28
2023-10-23T10:01:52.767Z,85.18
2023-10-23T10:07:07.689Z,84.02
2023-10-23T10:12:16.269Z,83.46
2023-10-23T10:17:25.333Z,82.70
2023-10-23T10:22:38.372Z,81.74
2023-10-23T10:27:46.084Z,80.97
2023-10-23T10:34:18.764Z,80.15
2023-10-23T10:38:31.467Z,78.93
2023-10-23T10:43:41.820Z,78.38
2023-10-23T10:48:50.875Z,77.49
2023-10-23T10:54:03.920Z,77.19
2023-10-23T10:59:11.635Z,76.91
2023-10-23T11:04:19.745Z,76.29
2023-10-23T11:09:27.359Z,75.40
2023-10-23T11:14:34.693Z,75.53
2023-10-23T11:19:44.608Z,74.97
2023-10-23T11:24:52.649Z,75.67
2023-10-23T11:30:00.433Z,75.85
2023-10-23T11:35:09.576Z,74.11
2023-10-23T11:40:23.733Z,72.87
2023-10-23T11:45:32.047Z,72.36
2023-10-23T11:50:39.559Z,73.08
2023-10-23T11:55:48.655Z,74.00
2023-10-23T12:00:56.365Z,74.09
2023-10-23T12:06:05.368Z,73.50
2023-10-23T12:11:12.803Z,73.22
2023-10-23T12:16:20.360Z,73.19
2023-10-23T12:21:28.047Z,72.21
2023-10-23T12:26:36.043Z,72.08
2023-10-23T12:32:01.617Z,71.56
2023-10-23T12:37:10.188Z,71.56
2023-10-23T12:42:17.858Z,71.64
2023-10-23T12:47:27.200Z,72.08
2023-10-23T12:52:35.237Z,71.31
2023-10-23T12:57:45.585Z,69.83
2023-10-23T13:02:53.303Z,68.70
2023-10-23T13:08:00.736Z,69.55
2023-10-23T13:13:08.241Z,69.78
2023-10-23T13:18:15.866Z,69.10
2023-10-23T13:23:23.585Z,68.72
2023-10-23T13:28:31.343Z,69.14
2023-10-23T13:33:38.908Z,68.43
2023-10-23T13:38:46.271Z,68.07
2023-10-23T13:43:54.027Z,68.50
2023-10-23T13:49:02.851Z,68.90
2023-10-23T13:54:11.232Z,69.62
2023-10-23T13:59:19.638Z,70.28
2023-10-23T14:04:29.457Z,70.24
2023-10-23T14:09:41.093Z,69.97
2023-10-23T14:14:54.318Z,69.40
2023-10-23T14:20:02.909Z,69.46
2023-10-23T14:25:12.986Z,70.20
2023-10-23T14:30:21.838Z,70.67
2023-10-23T14:35:32.830Z,70.80
2023-10-23T14:40:41.842Z,72.17
2023-10-23T14:45:52.861Z,73.65
2023-10-23T14:51:00.562Z,74.58
2023-10-23T14:56:13.870Z,75.07
2023-10-23T15:01:23.487Z,75.45
2023-10-23T15:06:31.102Z,76.66
2023-10-23T15:11:38.994Z,77.30
2023-10-23T15:16:46.567Z,77.76
2023-10-23T15:21:54.097Z,78.39
2023-10-23T15:27:01.951Z,79.39
2023-10-23T15:32:11.401Z,80.14
2023-10-23T15:37:20.732Z,81.33
2023-10-23T15:42:29.778Z,81.72
2023-10-23T15:47:37.183Z,81.90
2023-10-23T15:52:45.035Z,82.66
2023-10-23T15:57:52.591Z,83.29
2023-10-23T16:03:00.369Z,83.89
2023-10-23T16:08:13.255Z,84.06
2023-10-23T16:13:22.547Z,84.46
2023-10-23T16:18:30.578Z,85.47
2023-10-23T16:23:38.868Z,86.26
2023-10-23T16:28:46.485Z,86.74
2023-10-23T16:33:54.081Z,86.74
2023-10-23T16:39:03.995Z,87.17
2023-10-23T16:44:11.556Z,88.06
2023-10-23T16:49:19.163Z,88.46
2023-10-23T16:54:26.805Z,89.20
2023-10-23T16:59:34.367Z,89.86
2023-10-23T17:04:41.973Z,90.42
2023-10-23T17:09:49.384Z,90.91
2023-10-23T17:14:57.413Z,91.46
2023-10-23T17:20:06.560Z,91.29
2023-10-23T17:25:15.853Z,91.86
2023-10-23T17:30:24.820Z,91.99
2023-10-23T17:35:33.011Z,91.71
2023-10-23T17:40:40.714Z,92.48
2023-10-23T17:45:48.180Z,93.07
2023-10-23T17:51:00.901Z,93.54
2023-10-23T17:56:11.378Z,93.79
2023-10-23T18:01:19.410Z,94.05
2023-10-23T18:06:27.434Z,94.52
2023-10-23T18:11:35.484Z,94.85
2023-10-23T18:16:43.332Z,94.28
2023-10-23T18:21:50.937Z,94.48
2023-10-23T18:26:59.493Z,94.61
2023-10-23T18:32:08.095Z,94.90
2023-10-23T18:37:15.732Z,95.27
2023-10-23T18:42:24.280Z,95.37
2023-10-23T18:47:31.903Z,95.41
2023-10-23T18:52:39.478Z,95.58
2023-10-23T18:57:47.183Z,95.37
2023-10-23T19:02:54.787Z,95.51
2023-10-23T19:08:03.765Z,96.09
2023-10-23T19:13:12.341Z,95.73
2023-10-23T19:18:23.486Z,95.80
2023-10-23T19:23:31.679Z,96.16
2023-10-23T19:28:39.278Z,96.24
2023-10-23T19:33:50.171Z,96.68
2023-10-23T19:38:58.822Z,96.64
2023-10-23T19:44:07.692Z,96.96
2023-10-23T19:49:16.626Z,97.13
2023-10-23T19:54:38.291Z,97.42
2023-10-23T19:59:49.433Z,97.68
2023-10-23T20:04:56.986Z,97.39
2023-10-23T20:10:06.969Z,97.44
2023-10-23T20:15:15.539Z,97.76
2023-10-23T20:20:27.191Z,97.68
2023-10-23T20:25:36.310Z,97.22
2023-10-23T20:30:43.736Z,96.93
2023-10-23T20:35:50.968Z,97.02
2023-10-23T20:40:58.545Z,97.05
2023-10-23T20:46:07.851Z,96.97
2023-10-23T20:57:13.484Z,97.88
2023-10-23T21:02:21.347Z,97.46
2023-10-23T21:07:29.313Z,97.10
2023-10-23T21:12:37.155Z,96.92
2023-10-23T21:17:44.687Z,96.62
2023-10-23T21:22:53.188Z,97.12
2023-10-23T21:28:00.566Z,96.69
2023-10-23T21:33:08.146Z,96.67
2023-10-23T21:38:16.626Z,96.83
2023-10-23T21:43:24.177Z,96.70
2023-10-23T21:48:31.739Z,97.36
2023-10-23T21:53:40.502Z,98.16
2023-10-23T21:59:08.807Z,99.39
2023-10-23T22:04:18.844Z,98.07
2023-10-23T22:09:27.229Z,97.36
2023-10-23T22:14:36.277Z,97.48
2023-10-23T22:19:43.666Z,97.65
2023-10-23T22:24:51.336Z,98.31
2023-10-23T22:29:58.837Z,98.13
2023-10-23T22:35:07.581Z,98.73
2023-10-23T22:40:17.282Z,97.79
2023-10-23T22:45:24.977Z,97.16
2023-10-23T22:50:34.688Z,97.32
2023-10-23T22:55:43.569Z,96.98
2023-10-23T23:00:51.897Z,97.79
2023-10-23T23:06:05.201Z,97.70
2023-10-23T23:11:13.733Z,96.98
2023-10-23T23:16:22.712Z,96.91
2023-10-23T23:21:34.937Z,97.09
2023-10-23T23:26:42.251Z,96.77
2023-10-23T23:31:49.699Z,97.20
2023-10-23T23:36:57.543Z,97.25
2023-10-23T23:42:05.455Z,97.40
2023-10-23T23:47:12.850Z,97.69
2023-10-23T23:57:50.340Z,97.58
